Time;durP1;ratioP1;P1;durP2;ratioP2;P2;SDS_P1;SDS_P2;PMS_P1;PMS_P2;Temp;Humidity;BMP_temperature;BMP_pressure;BME280_temperature;BME280_humidity;BME280_pressure;Samples;Min_cycle;Max_cycle;Signal;HPM_P1;HPM_P2
2022/11/08 00:01:42;;;;;;;;;;;24.20;36.50;;;;;;491645;242;2160;-75
2022/11/08 00:03:44;;;;;;;;;;;24.20;36.10;;;;;;491896;240;1211;-75
2022/11/08 00:15:02;;;;;;;;;;;24.30;36.10;;;;;;491733;242;1176;-75
2022/11/08 00:17:03;;;;;;;;;;;24.30;36.20;;;;;;491629;240;1200;-75
2022/11/08 00:19:05;;;;;;;;;;;24.30;36.10;;;;;;491648;240;1260;-75
2022/11/08 00:21:06;;;;;;;;;;;24.30;36.50;;;;;;491639;240;1172;-75
2022/11/08 00:23:07;;;;;;;;;;;24.30;36.10;;;;;;491701;240;2152;-75
2022/11/08 00:25:09;;;;;;;;;;;24.30;36.20;;;;;;491559;240;1247;-75
2022/11/08 00:27:10;;;;;;;;;;;24.30;36.50;;;;;;491702;240;1282;-75
2022/11/08 00:29:11;;;;;;;;;;;24.30;36.20;;;;;;491779;240;1516;-75
2022/11/08 00:31:13;;;;;;;;;;;24.20;36.40;;;;;;491741;240;1198;-75
2022/11/08 00:33:14;;;;;;;;;;;24.30;36.30;;;;;;491682;240;1176;-75
2022/11/08 00:35:15;;;;;;;;;;;24.40;36.00;;;;;;491718;240;1111;-75
2022/11/08 00:37:16;;;;;;;;;;;24.40;36.10;;;;;;491658;240;1141;-75
2022/11/08 00:39:18;;;;;;;;;;;24.40;36.40;;;;;;491661;240;1207;-75
2022/11/08 00:41:19;;;;;;;;;;;24.30;36.20;;;;;;491694;240;1400;-75
2022/11/08 00:43:21;;;;;;;;;;;24.30;36.10;;;;;;491625;240;2188;-75
2022/11/08 00:45:22;;;;;;;;;;;24.30;36.40;;;;;;491685;240;1234;-75
2022/11/08 00:47:23;;;;;;;;;;;24.40;36.20;;;;;;491639;240;1232;-75
2022/11/08 00:49:25;;;;;;;;;;;24.30;35.90;;;;;;491749;240;1189;-75
2022/11/08 00:51:26;;;;;;;;;;;24.40;36.40;;;;;;491621;240;1310;-75
2022/11/08 00:53:27;;;;;;;;;;;24.40;36.10;;;;;;491639;240;1108;-75
2022/11/08 00:55:29;;;;;;;;;;;24.40;36.40;;;;;;491699;240;1169;-75
2022/11/08 00:57:30;;;;;;;;;;;24.40;36.10;;;;;;491729;240;1253;-75
2022/11/08 00:59:31;;;;;;;;;;;24.30;36.40;;;;;;491497;240;1453;-75
2022/11/08 01:01:33;;;;;;;;;;;24.40;36.10;;;;;;491718;240;1155;-74
2022/11/08 01:03:34;;;;;;;;;;;24.40;36.20;;;;;;491754;240;2101;-75
2022/11/08 01:05:35;;;;;;;;;;;24.40;36.20;;;;;;491718;240;1199;-75
2022/11/08 01:07:37;;;;;;;;;;;24.40;36.10;;;;;;491682;240;1095;-74
2022/11/08 01:09:38;;;;;;;;;;;24.40;36.10;;;;;;491831;240;1125;-74
2022/11/08 01:11:44;;;;;;;;;;;24.40;35.90;;;;;;491697;240;1188;-74
2022/11/08 01:13:41;;;;;;;;;;;24.50;36.30;;;;;;491835;240;1529;-75
2022/11/08 01:15:42;;;;;;;;;;;24.40;35.90;;;;;;491797;240;1091;-75
2022/11/08 01:17:43;;;;;;;;;;;24.40;36.00;;;;;;491702;240;1112;-75
2022/11/08 01:19:45;;;;;;;;;;;24.40;36.00;;;;;;491754;240;1300;-75
2022/11/08 01:21:46;;;;;;;;;;;24.40;36.30;;;;;;491868;240;2151;-74
2022/11/08 01:23:48;;;;;;;;;;;24.40;36.10;;;;;;491759;240;1072;-75
2022/11/08 01:25:49;;;;;;;;;;;24.40;36.40;;;;;;491811;240;1115;-74
2022/11/08 01:27:50;;;;;;;;;;;24.30;36.00;;;;;;491729;240;1219;-74
2022/11/08 01:29:51;;;;;;;;;;;24.40;36.30;;;;;;491710;240;1082;-75
2022/11/08 01:31:53;;;;;;;;;;;24.40;36.10;;;;;;491766;240;1133;-75
2022/11/08 01:33:54;;;;;;;;;;;24.40;36.30;;;;;;491737;240;1155;-75
2022/11/08 01:35:55;;;;;;;;;;;24.40;36.30;;;;;;491703;240;1056;-74
2022/11/08 01:37:57;;;;;;;;;;;24.40;36.00;;;;;;491712;240;1058;-74
2022/11/08 01:39:58;;;;;;;;;;;24.40;36.30;;;;;;491719;240;1249;-75
2022/11/08 01:41:59;;;;;;;;;;;24.40;35.90;;;;;;491627;240;2192;-75
2022/11/08 01:44:01;;;;;;;;;;;24.40;36.30;;;;;;491835;240;1165;-73
2022/11/08 01:46:02;;;;;;;;;;;24.30;36.00;;;;;;491720;240;1077;-72
2022/11/08 01:48:03;;;;;;;;;;;24.40;36.20;;;;;;491770;240;1105;-72
2022/11/08 01:50:05;;;;;;;;;;;24.30;36.10;;;;;;491744;240;1270;-72
2022/11/08 01:52:06;;;;;;;;;;;24.30;36.10;;;;;;491744;240;1167;-72
2022/11/08 01:54:07;;;;;;;;;;;24.40;36.10;;;;;;491693;240;1119;-72
2022/11/08 01:56:09;;;;;;;;;;;24.40;36.10;;;;;;491757;240;1081;-72
2022/11/08 01:58:10;;;;;;;;;;;24.40;35.80;;;;;;491695;240;1343;-72
2022/11/08 02:00:11;;;;;;;;;;;24.50;36.10;;;;;;491811;240;1101;-72
2022/11/08 02:02:13;;;;;;;;;;;24.40;35.90;;;;;;491724;240;2224;-72
2022/11/08 02:04:14;;;;;;;;;;;24.40;36.10;;;;;;491796;240;1360;-75
2022/11/08 02:06:15;;;;;;;;;;;24.40;35.90;;;;;;491714;240;1080;-75
2022/11/08 02:08:17;;;;;;;;;;;24.40;36.20;;;;;;491662;240;1118;-75
2022/11/08 02:10:18;;;;;;;;;;;24.40;35.90;;;;;;491753;240;1196;-75
2022/11/08 02:12:19;;;;;;;;;;;24.40;36.10;;;;;;491720;240;1226;-75
2022/11/08 02:14:21;;;;;;;;;;;24.30;35.80;;;;;;491710;240;1078;-75
2022/11/08 02:16:22;;;;;;;;;;;24.30;36.10;;;;;;491773;240;1280;-75
2022/11/08 02:18:23;;;;;;;;;;;24.30;36.00;;;;;;491846;240;1148;-75
2022/11/08 02:20:25;;;;;;;;;;;24.30;36.10;;;;;;491809;240;1079;-75
2022/11/08 02:22:27;;;;;;;;;;;24.40;36.00;;;;;;491736;240;2183;-75
2022/11/08 02:24:28;;;;;;;;;;;24.40;36.00;;;;;;491784;240;1190;-75
2022/11/08 02:26:30;;;;;;;;;;;24.40;35.80;;;;;;491748;240;1188;-75
2022/11/08 02:28:31;;;;;;;;;;;24.30;36.20;;;;;;491767;240;1103;-75
2022/11/08 02:30:32;;;;;;;;;;;24.30;36.00;;;;;;491689;240;1165;-75
2022/11/08 02:32:34;;;;;;;;;;;24.40;36.00;;;;;;491758;240;1113;-75
2022/11/08 02:34:35;;;;;;;;;;;24.40;36.30;;;;;;491705;240;1180;-75
2022/11/08 02:36:36;;;;;;;;;;;24.40;36.00;;;;;;491635;240;1082;-75
2022/11/08 02:38:37;;;;;;;;;;;24.40;36.40;;;;;;491698;240;1097;-75
2022/11/08 02:40:39;;;;;;;;;;;24.40;35.90;;;;;;491651;240;1071;-75
2022/11/08 02:42:40;;;;;;;;;;;24.40;36.40;;;;;;491616;240;2155;-75
2022/11/08 02:44:41;;;;;;;;;;;24.40;36.00;;;;;;491669;240;1175;-75
2022/11/08 02:46:43;;;;;;;;;;;24.40;36.50;;;;;;491737;240;1153;-75
2022/11/08 02:48:44;;;;;;;;;;;24.40;36.00;;;;;;491800;240;1165;-75
2022/11/08 02:50:45;;;;;;;;;;;24.40;36.30;;;;;;491672;240;1093;-75
2022/11/08 02:52:47;;;;;;;;;;;24.30;36.20;;;;;;491798;240;1200;-75
2022/11/08 02:54:48;;;;;;;;;;;24.30;35.90;;;;;;491677;240;1123;-72
2022/11/08 02:56:49;;;;;;;;;;;24.30;36.30;;;;;;491780;240;1113;-72
2022/11/08 02:58:51;;;;;;;;;;;24.30;36.20;;;;;;491742;240;1111;-74
2022/11/08 03:00:52;;;;;;;;;;;24.30;35.90;;;;;;491750;240;1222;-74
2022/11/08 03:02:53;;;;;;;;;;;24.30;36.40;;;;;;491733;240;2152;-74
2022/11/08 03:04:55;;;;;;;;;;;24.30;35.90;;;;;;491667;240;1157;-75
2022/11/08 03:06:56;;;;;;;;;;;24.30;36.00;;;;;;491728;240;1357;-75
2022/11/08 03:08:57;;;;;;;;;;;24.30;36.00;;;;;;491765;240;1218;-75
2022/11/08 03:10:59;;;;;;;;;;;24.30;36.10;;;;;;491661;240;1179;-74
2022/11/08 03:13:00;;;;;;;;;;;24.20;36.40;;;;;;491710;240;1205;-75
2022/11/08 03:15:01;;;;;;;;;;;24.30;36.10;;;;;;491662;240;1291;-75
2022/11/08 03:17:03;;;;;;;;;;;24.20;36.10;;;;;;491798;240;1211;-75
2022/11/08 03:19:04;;;;;;;;;;;24.30;36.50;;;;;;491724;240;1264;-75
2022/11/08 03:21:06;;;;;;;;;;;24.20;36.00;;;;;;491736;240;1222;-75
2022/11/08 03:23:07;;;;;;;;;;;24.30;36.40;;;;;;491705;240;2207;-75
2022/11/08 03:25:08;;;;;;;;;;;24.20;35.90;;;;;;491676;240;1179;-75
2022/11/08 03:27:10;;;;;;;;;;;24.20;36.00;;;;;;491738;240;1171;-75
2022/11/08 03:29:11;;;;;;;;;;;24.30;36.30;;;;;;491646;240;1164;-75
2022/11/08 03:31:12;;;;;;;;;;;24.30;36.50;;;;;;491745;240;1118;-75
2022/11/08 03:33:14;;;;;;;;;;;24.30;35.90;;;;;;491796;240;1159;-75
2022/11/08 03:35:15;;;;;;;;;;;24.30;36.20;;;;;;491724;240;1157;-75
2022/11/08 03:37:16;;;;;;;;;;;24.30;36.40;;;;;;491749;240;1195;-75
2022/11/08 03:39:18;;;;;;;;;;;24.40;36.00;;;;;;491666;240;1196;-75
2022/11/08 03:41:19;;;;;;;;;;;24.40;36.10;;;;;;491646;240;1369;-75
2022/11/08 03:43:20;;;;;;;;;;;24.40;35.90;;;;;;491703;240;2187;-75
2022/11/08 03:45:22;;;;;;;;;;;24.30;36.50;;;;;;491757;240;1216;-75
2022/11/08 03:47:23;;;;;;;;;;;24.40;36.10;;;;;;491809;240;1230;-75
2022/11/08 03:49:25;;;;;;;;;;;24.30;35.90;;;;;;491653;240;1191;-75
2022/11/08 03:51:26;;;;;;;;;;;24.40;36.30;;;;;;491682;240;1593;-75
2022/11/08 03:53:27;;;;;;;;;;;24.40;36.00;;;;;;491757;240;1155;-75
2022/11/08 03:55:28;;;;;;;;;;;24.40;35.70;;;;;;491599;240;1151;-75
2022/11/08 03:57:30;;;;;;;;;;;24.50;35.40;;;;;;491695;240;1170;-75
2022/11/08 03:59:31;;;;;;;;;;;24.40;35.40;;;;;;491791;240;1124;-74
2022/11/08 04:01:32;;;;;;;;;;;24.40;35.80;;;;;;491672;240;1243;-74
2022/11/08 04:03:34;;;;;;;;;;;24.40;35.40;;;;;;491682;240;2151;-74
2022/11/08 04:05:35;;;;;;;;;;;24.40;35.80;;;;;;491616;240;1183;-74
2022/11/08 04:07:36;;;;;;;;;;;24.40;35.60;;;;;;491687;240;1077;-74
2022/11/08 04:09:38;;;;;;;;;;;24.40;36.00;;;;;;491680;240;1176;-74
2022/11/08 04:16:18;;;;;;;;;;;24.30;36.00;;;;;;491779;242;1088;-75
2022/11/08 04:22:57;;;;;;;;;;;24.30;35.90;;;;;;491612;242;2152;-74
2022/11/08 04:24:59;;;;;;;;;;;24.30;35.70;;;;;;491591;240;1186;-74
2022/11/08 04:27:01;;;;;;;;;;;24.40;36.20;;;;;;491715;240;1149;-74
2022/11/08 04:29:02;;;;;;;;;;;24.30;35.60;;;;;;491781;240;1431;-75
2022/11/08 04:31:03;;;;;;;;;;;24.30;36.20;;;;;;491681;240;1138;-75
2022/11/08 04:33:05;;;;;;;;;;;24.30;35.60;;;;;;491782;240;1166;-74
2022/11/08 04:35:06;;;;;;;;;;;24.30;36.10;;;;;;491698;240;1414;-74
2022/11/08 04:37:07;;;;;;;;;;;24.30;35.70;;;;;;491734;240;1166;-74
2022/11/08 04:39:08;;;;;;;;;;;24.30;35.90;;;;;;491768;240;1267;-74
2022/11/08 04:41:10;;;;;;;;;;;24.30;36.50;;;;;;491755;240;1092;-75
2022/11/08 04:43:11;;;;;;;;;;;24.30;36.00;;;;;;491640;240;2192;-75
2022/11/08 04:45:12;;;;;;;;;;;24.30;36.10;;;;;;491816;240;1150;-75
2022/11/08 04:47:14;;;;;;;;;;;24.30;35.90;;;;;;491716;240;1241;-75
2022/11/08 04:49:15;;;;;;;;;;;24.30;36.00;;;;;;491796;240;1174;-75
2022/11/08 04:51:16;;;;;;;;;;;24.30;36.00;;;;;;491678;240;1167;-75
2022/11/08 04:53:18;;;;;;;;;;;24.30;35.90;;;;;;491728;240;1125;-75
2022/11/08 04:55:19;;;;;;;;;;;24.30;36.10;;;;;;491717;240;1098;-75
2022/11/08 04:57:20;;;;;;;;;;;24.30;35.80;;;;;;491829;240;1196;-75
2022/11/08 04:59:22;;;;;;;;;;;24.40;36.00;;;;;;491674;240;1130;-75
2022/11/08 05:01:23;;;;;;;;;;;24.40;36.30;;;;;;491793;240;1150;-75
2022/11/08 05:03:24;;;;;;;;;;;24.40;35.70;;;;;;491728;240;2160;-75
2022/11/08 05:05:26;;;;;;;;;;;24.40;36.30;;;;;;491773;240;1092;-75
2022/11/08 05:07:27;;;;;;;;;;;24.30;35.80;;;;;;491832;240;1103;-75
2022/11/08 05:09:28;;;;;;;;;;;24.30;35.90;;;;;;491641;240;1105;-75
2022/11/08 05:11:30;;;;;;;;;;;24.30;36.10;;;;;;491728;240;1170;-75
2022/11/08 05:13:31;;;;;;;;;;;24.30;36.10;;;;;;491676;240;1153;-75
2022/11/08 05:15:32;;;;;;;;;;;24.20;36.50;;;;;;491669;240;1188;-75
2022/11/08 05:17:34;;;;;;;;;;;24.30;36.50;;;;;;491742;240;1131;-75
2022/11/08 05:24:24;;;;;;;;;;;24.30;36.00;;;;;;485644;245;2212;-75
2022/11/08 05:26:26;;;;;;;;;;;24.30;36.10;;;;;;474714;250;1256;-74
2022/11/08 05:28:27;;;;;;;;;;;24.30;36.00;;;;;;474728;251;1237;-74
2022/11/08 05:30:28;;;;;;;;;;;24.30;36.30;;;;;;474652;251;1202;-74
2022/11/08 05:32:30;;;;;;;;;;;24.20;36.40;;;;;;474614;251;1397;-74
2022/11/08 05:34:31;;;;;;;;;;;24.30;35.90;;;;;;474678;251;1364;-74
2022/11/08 05:36:32;;;;;;;;;;;24.30;36.00;;;;;;474659;251;1244;-74
2022/11/08 05:38:34;;;;;;;;;;;24.30;36.10;;;;;;474569;251;1363;-75
2022/11/08 05:40:35;;;;;;;;;;;24.30;35.80;;;;;;474757;251;1252;-75
2022/11/08 05:42:36;;;;;;;;;;;24.30;36.10;;;;;;474624;251;1221;-75
2022/11/08 05:44:38;;;;;;;;;;;24.30;35.70;;;;;;474621;251;2192;-75
2022/11/08 05:46:39;;;;;;;;;;;24.30;36.00;;;;;;476469;250;1164;-75
2022/11/08 05:48:40;;;;;;;;;;;24.30;36.20;;;;;;474570;250;1237;-75
2022/11/08 05:50:42;;;;;;;;;;;24.40;36.10;;;;;;476416;250;1141;-75
2022/11/08 05:52:43;;;;;;;;;;;24.30;35.70;;;;;;474638;250;1258;-75
2022/11/08 05:54:44;;;;;;;;;;;24.30;36.00;;;;;;476560;250;1218;-75
2022/11/08 05:56:45;;;;;;;;;;;24.30;36.00;;;;;;474663;250;1161;-75
2022/11/08 05:58:47;;;;;;;;;;;24.20;35.60;;;;;;479044;246;1226;-75
2022/11/08 06:00:48;;;;;;;;;;;24.30;36.10;;;;;;485180;246;1364;-75
2022/11/08 06:02:49;;;;;;;;;;;24.30;35.60;;;;;;485208;246;1200;-75
2022/11/08 06:04:51;;;;;;;;;;;24.30;35.90;;;;;;485116;246;2152;-75
2022/11/08 06:06:52;;;;;;;;;;;24.30;36.20;;;;;;485178;246;1184;-75
2022/11/08 06:08:53;;;;;;;;;;;24.30;35.70;;;;;;485099;246;1054;-74
2022/11/08 06:10:55;;;;;;;;;;;24.30;35.60;;;;;;485094;246;1093;-75
2022/11/08 06:12:56;;;;;;;;;;;24.30;35.90;;;;;;485010;246;1286;-75
2022/11/08 06:14:57;;;;;;;;;;;24.30;36.20;;;;;;484978;246;1176;-74
2022/11/08 06:16:59;;;;;;;;;;;24.20;35.50;;;;;;485119;246;1165;-75
2022/11/08 06:19:00;;;;;;;;;;;24.30;36.10;;;;;;485098;246;1103;-75
2022/11/08 06:21:01;;;;;;;;;;;24.20;36.30;;;;;;485104;246;1140;-75
2022/11/08 06:23:03;;;;;;;;;;;24.20;35.80;;;;;;485150;246;1386;-75
2022/11/08 06:25:04;;;;;;;;;;;24.30;35.80;;;;;;484985;246;2156;-75
2022/11/08 06:27:05;;;;;;;;;;;24.30;35.70;;;;;;485160;246;1081;-75
2022/11/08 06:29:07;;;;;;;;;;;24.30;35.70;;;;;;485113;246;1120;-75
2022/11/08 06:31:08;;;;;;;;;;;24.30;36.10;;;;;;485052;246;1203;-75
2022/11/08 06:33:09;;;;;;;;;;;24.30;35.80;;;;;;485057;246;1197;-75
2022/11/08 06:35:11;;;;;;;;;;;24.20;35.90;;;;;;485188;246;1226;-75
2022/11/08 06:37:12;;;;;;;;;;;24.30;36.50;;;;;;485001;246;1174;-75
2022/11/08 06:39:13;;;;;;;;;;;24.30;36.30;;;;;;485106;246;1062;-75
2022/11/08 06:41:15;;;;;;;;;;;24.30;35.90;;;;;;485099;246;1042;-75
2022/11/08 06:43:16;;;;;;;;;;;24.30;36.30;;;;;;484978;246;1203;-75
2022/11/08 06:45:17;;;;;;;;;;;24.20;36.40;;;;;;485099;246;2207;-75
2022/11/08 06:47:19;;;;;;;;;;;24.20;36.00;;;;;;485213;246;1308;-75
2022/11/08 06:49:20;;;;;;;;;;;24.30;36.40;;;;;;485061;246;1133;-75
2022/11/08 06:51:21;;;;;;;;;;;24.30;35.90;;;;;;485048;246;1289;-74
2022/11/08 06:53:23;;;;;;;;;;;24.20;36.30;;;;;;485075;246;1218;-74
2022/11/08 06:55:24;;;;;;;;;;;24.30;36.00;;;;;;485075;246;1151;-74
2022/11/08 06:57:25;;;;;;;;;;;24.30;35.70;;;;;;485113;246;1165;-74
2022/11/08 06:59:27;;;;;;;;;;;24.40;36.00;;;;;;485032;246;1198;-74
2022/11/08 07:01:28;;;;;;;;;;;24.40;36.20;;;;;;485091;246;1120;-74
2022/11/08 07:03:29;;;;;;;;;;;24.30;35.70;;;;;;485100;246;1144;-74
2022/11/08 07:05:31;;;;;;;;;;;24.30;36.20;;;;;;485044;246;2148;-74
2022/11/08 07:07:32;;;;;;;;;;;24.30;35.60;;;;;;485085;246;1471;-74
2022/11/08 07:09:33;;;;;;;;;;;24.30;36.10;;;;;;484955;246;1245;-74
2022/11/08 07:11:34;;;;;;;;;;;24.30;35.70;;;;;;485066;246;1175;-74
2022/11/08 07:13:36;;;;;;;;;;;24.30;36.20;;;;;;485196;246;1139;-74
2022/11/08 07:15:37;;;;;;;;;;;24.30;35.80;;;;;;485116;246;1210;-74
2022/11/08 07:17:38;;;;;;;;;;;24.30;36.10;;;;;;485047;246;1224;-74
2022/11/08 07:19:40;;;;;;;;;;;24.20;36.10;;;;;;485093;242;1340;-74
2022/11/08 07:21:41;;;;;;;;;;;24.30;36.00;;;;;;485102;246;1153;-74
2022/11/08 07:23:42;;;;;;;;;;;24.30;35.70;;;;;;485045;246;1275;-74
2022/11/08 07:25:44;;;;;;;;;;;24.30;36.20;;;;;;485056;246;2116;-74
2022/11/08 07:27:45;;;;;;;;;;;24.30;35.80;;;;;;485006;246;1232;-74
2022/11/08 07:29:46;;;;;;;;;;;24.30;36.30;;;;;;484934;246;1107;-75
2022/11/08 07:31:48;;;;;;;;;;;24.30;35.80;;;;;;485072;246;1313;-74
2022/11/08 07:33:49;;;;;;;;;;;24.30;36.30;;;;;;485074;246;1208;-74
2022/11/08 07:35:50;;;;;;;;;;;24.30;35.90;;;;;;484897;246;1267;-74
2022/11/08 07:37:52;;;;;;;;;;;24.30;35.70;;;;;;485089;246;1315;-74
2022/11/08 07:39:53;;;;;;;;;;;24.40;35.70;;;;;;484975;246;1183;-74
2022/11/08 07:41:54;;;;;;;;;;;24.60;35.40;;;;;;484857;246;1175;-74
2022/11/08 07:43:56;;;;;;;;;;;24.80;35.10;;;;;;484828;246;2188;-74
2022/11/08 07:45:57;;;;;;;;;;;25.00;35.30;;;;;;484736;246;1196;-74
2022/11/08 07:47:58;;;;;;;;;;;25.20;34.50;;;;;;484396;246;1113;-74
2022/11/08 07:50:00;;;;;;;;;;;25.60;34.80;;;;;;484730;246;1098;-75
2022/11/08 07:52:01;;;;;;;;;;;25.90;33.90;;;;;;484889;246;1127;-74
2022/11/08 07:54:02;;;;;;;;;;;26.10;34.00;;;;;;484567;246;1065;-74
2022/11/08 07:56:04;;;;;;;;;;;26.00;33.80;;;;;;484591;246;1098;-74
2022/11/08 07:58:05;;;;;;;;;;;25.90;34.00;;;;;;484488;246;1277;-74
2022/11/08 08:00:07;;;;;;;;;;;25.80;34.00;;;;;;484554;246;1065;-74
2022/11/08 08:02:08;;;;;;;;;;;25.70;34.10;;;;;;484263;246;1047;-74
2022/11/08 08:04:11;;;;;;;;;;;25.70;34.10;;;;;;484409;246;2191;-74
2022/11/08 08:06:11;;;;;;;;;;;25.70;34.30;;;;;;484092;246;1388;-74
2022/11/08 08:08:12;;;;;;;;;;;25.60;34.40;;;;;;484083;246;1229;-74
2022/11/08 08:10:13;;;;;;;;;;;25.50;34.50;;;;;;484277;246;1068;-74
2022/11/08 08:12:14;;;;;;;;;;;25.40;34.70;;;;;;484548;246;1112;-74
2022/11/08 08:14:16;;;;;;;;;;;25.30;35.00;;;;;;484638;246;1101;-74
2022/11/08 08:16:17;;;;;;;;;;;25.10;35.20;;;;;;484840;246;1119;-74
2022/11/08 08:18:20;;;;;;;;;;;25.00;35.40;;;;;;484691;246;1104;-74
2022/11/08 08:20:20;;;;;;;;;;;24.90;35.50;;;;;;484756;242;1413;-74
2022/11/08 08:22:21;;;;;;;;;;;25.00;35.40;;;;;;484843;246;1106;-74
2022/11/08 08:24:22;;;;;;;;;;;25.20;35.30;;;;;;484762;246;2195;-74
2022/11/08 08:26:24;;;;;;;;;;;25.30;35.10;;;;;;484639;246;1121;-74
2022/11/08 08:28:25;;;;;;;;;;;25.50;35.00;;;;;;484674;246;1093;-74
2022/11/08 08:30:26;;;;;;;;;;;25.70;34.70;;;;;;484649;246;1338;-74
2022/11/08 08:32:28;;;;;;;;;;;26.00;34.50;;;;;;484496;246;1136;-74
2022/11/08 08:34:29;;;;;;;;;;;26.20;34.20;;;;;;484637;246;1114;-74
2022/11/08 08:36:30;;;;;;;;;;;26.40;33.90;;;;;;484907;246;1187;-74
2022/11/08 08:38:32;;;;;;;;;;;26.50;33.80;;;;;;484816;246;1198;-74
2022/11/08 08:40:33;;;;;;;;;;;26.60;33.80;;;;;;484768;246;1220;-74
2022/11/08 08:42:35;;;;;;;;;;;26.70;33.70;;;;;;484853;246;1264;-74
2022/11/08 08:44:36;;;;;;;;;;;26.70;33.70;;;;;;484834;246;2199;-74
2022/11/08 08:46:37;;;;;;;;;;;26.70;33.80;;;;;;484669;246;1103;-74
2022/11/08 08:48:39;;;;;;;;;;;26.70;33.80;;;;;;484752;246;1127;-74
2022/11/08 08:50:40;;;;;;;;;;;26.60;34.00;;;;;;484786;246;1143;-74
2022/11/08 08:52:41;;;;;;;;;;;26.50;34.20;;;;;;484833;246;1207;-74
2022/11/08 08:54:43;;;;;;;;;;;26.50;34.40;;;;;;484716;246;1133;-74
2022/11/08 08:56:44;;;;;;;;;;;26.50;34.50;;;;;;484787;246;1136;-74
2022/11/08 08:58:45;;;;;;;;;;;26.50;34.40;;;;;;484683;246;1137;-74
2022/11/08 09:00:47;;;;;;;;;;;26.60;34.40;;;;;;484602;246;1158;-74
2022/11/08 09:02:48;;;;;;;;;;;26.70;34.30;;;;;;484650;246;1107;-74
2022/11/08 09:04:49;;;;;;;;;;;26.90;34.20;;;;;;484424;246;2190;-74
2022/11/08 09:06:51;;;;;;;;;;;27.10;34.20;;;;;;484676;246;1172;-74
2022/11/08 09:08:52;;;;;;;;;;;27.30;34.00;;;;;;484218;246;1184;-74
2022/11/08 09:10:54;;;;;;;;;;;27.40;33.90;;;;;;484551;246;1157;-74
2022/11/08 09:12:55;;;;;;;;;;;27.50;33.80;;;;;;484697;246;1195;-74
2022/11/08 09:14:57;;;;;;;;;;;27.50;34.00;;;;;;484638;246;1303;-74
2022/11/08 09:16:58;;;;;;;;;;;27.50;34.00;;;;;;484842;246;1122;-74
2022/11/08 09:18:59;;;;;;;;;;;27.50;34.10;;;;;;484210;246;1098;-74
2022/11/08 09:21:03;;;;;;;;;;;27.50;34.10;;;;;;484039;246;1132;-74
2022/11/08 09:23:02;;;;;;;;;;;27.50;34.20;;;;;;484200;246;1410;-74
2022/11/08 09:25:03;;;;;;;;;;;27.40;34.40;;;;;;484369;246;2204;-74
2022/11/08 09:27:05;;;;;;;;;;;27.30;34.70;;;;;;484459;246;1260;-74
2022/11/08 09:29:06;;;;;;;;;;;27.20;35.00;;;;;;484392;246;1189;-74
2022/11/08 09:31:07;;;;;;;;;;;27.00;35.30;;;;;;484381;246;1063;-74
2022/11/08 09:33:09;;;;;;;;;;;26.80;35.60;;;;;;484247;246;1161;-74
2022/11/08 09:35:10;;;;;;;;;;;26.60;36.00;;;;;;484188;246;1096;-74
2022/11/08 09:37:11;;;;;;;;;;;26.40;36.50;;;;;;484157;242;1742;-74
2022/11/08 09:39:13;;;;;;;;;;;26.20;36.80;;;;;;484102;246;1512;-74
2022/11/08 09:41:14;;;;;;;;;;;25.90;37.20;;;;;;484130;246;1195;-74
2022/11/08 09:43:15;;;;;;;;;;;25.70;37.60;;;;;;484316;246;1105;-74
2022/11/08 09:45:17;;;;;;;;;;;25.40;37.90;;;;;;484460;246;2179;-74
2022/11/08 09:47:18;;;;;;;;;;;25.20;38.10;;;;;;484526;246;1202;-74
2022/11/08 09:49:19;;;;;;;;;;;24.90;38.50;;;;;;484564;246;1150;-74
2022/11/08 09:51:21;;;;;;;;;;;24.70;38.80;;;;;;484422;246;1224;-74
2022/11/08 09:53:22;;;;;;;;;;;24.50;38.90;;;;;;484352;246;1129;-74
2022/11/08 09:55:23;;;;;;;;;;;24.30;39.10;;;;;;484508;246;1396;-74
2022/11/08 09:57:25;;;;;;;;;;;24.10;39.20;;;;;;484805;246;1079;-74
2022/11/08 09:59:26;;;;;;;;;;;23.90;39.50;;;;;;484743;246;1152;-74
2022/11/08 10:01:27;;;;;;;;;;;23.70;39.60;;;;;;484521;246;1288;-74
2022/11/08 10:03:29;;;;;;;;;;;23.50;39.70;;;;;;484467;246;1190;-74
2022/11/08 10:05:33;;;;;;;;;;;23.40;39.80;;;;;;484497;246;2187;-74
2022/11/08 10:07:32;;;;;;;;;;;23.40;39.80;;;;;;484513;246;1378;-74
2022/11/08 10:09:34;;;;;;;;;;;23.30;40.00;;;;;;484616;246;1163;-74
2022/11/08 10:11:35;;;;;;;;;;;23.40;39.70;;;;;;484777;246;1078;-74
2022/11/08 10:13:36;;;;;;;;;;;23.50;39.20;;;;;;484396;246;1235;-74
2022/11/08 10:15:37;;;;;;;;;;;23.60;39.00;;;;;;484756;246;1214;-74
2022/11/08 10:17:39;;;;;;;;;;;23.70;38.70;;;;;;484689;246;1095;-74
2022/11/08 10:19:40;;;;;;;;;;;23.70;38.60;;;;;;484726;246;1554;-74
2022/11/08 10:21:41;;;;;;;;;;;23.70;38.50;;;;;;484622;246;1176;-74
2022/11/08 10:23:43;;;;;;;;;;;23.70;38.60;;;;;;484716;246;1128;-74
2022/11/08 10:25:44;;;;;;;;;;;23.80;38.40;;;;;;484690;246;2191;-74
2022/11/08 10:27:45;;;;;;;;;;;23.70;38.40;;;;;;484480;246;1224;-74
2022/11/08 10:29:47;;;;;;;;;;;23.80;38.20;;;;;;484640;246;1134;-74
2022/11/08 10:31:48;;;;;;;;;;;23.80;38.10;;;;;;484350;246;1162;-74
2022/11/08 10:33:49;;;;;;;;;;;23.80;38.00;;;;;;484332;246;1158;-74
2022/11/08 10:35:51;;;;;;;;;;;23.80;38.00;;;;;;484368;246;1306;-74
2022/11/08 10:37:52;;;;;;;;;;;23.80;37.90;;;;;;484577;246;1275;-74
2022/11/08 10:39:54;;;;;;;;;;;23.90;38.00;;;;;;484342;246;1166;-73
2022/11/08 10:41:55;;;;;;;;;;;23.80;37.90;;;;;;484456;246;1134;-65
2022/11/08 10:43:57;;;;;;;;;;;23.80;37.80;;;;;;484565;246;1157;-64
2022/11/08 10:45:58;;;;;;;;;;;23.50;38.40;;;;;;484567;246;2192;-66
2022/11/08 10:47:59;;;;;;;;;;;23.30;38.70;;;;;;484611;246;1227;-63
2022/11/08 10:50:00;;;;;;;;;;;23.30;38.90;;;;;;484689;246;1164;-64
2022/11/08 10:52:02;;;;;;;;;;;23.20;38.80;;;;;;484529;246;1249;-63
2022/11/08 10:54:03;;;;;;;;;;;23.30;38.70;;;;;;484248;246;1097;-63
2022/11/08 10:56:04;;;;;;;;;;;23.30;38.70;;;;;;484343;246;1146;-63
2022/11/08 10:58:06;;;;;;;;;;;23.30;38.50;;;;;;484216;246;1172;-63
2022/11/08 11:00:07;;;;;;;;;;;23.30;38.50;;;;;;484366;246;1201;-63
2022/11/08 11:02:08;;;;;;;;;;;23.40;38.30;;;;;;484545;246;1241;-63
2022/11/08 11:04:10;;;;;;;;;;;23.40;38.40;;;;;;484591;246;1079;-63
2022/11/08 11:06:11;;;;;;;;;;;23.30;38.30;;;;;;484502;246;2195;-63
2022/11/08 11:08:13;;;;;;;;;;;23.40;38.20;;;;;;484451;246;1140;-63
2022/11/08 11:10:14;;;;;;;;;;;23.40;38.10;;;;;;484233;246;1200;-64
2022/11/08 11:12:15;;;;;;;;;;;23.40;38.00;;;;;;484250;246;1240;-64
2022/11/08 11:14:17;;;;;;;;;;;23.40;37.90;;;;;;484358;246;1157;-63
2022/11/08 11:16:18;;;;;;;;;;;23.40;37.90;;;;;;484862;246;1288;-63
2022/11/08 11:18:19;;;;;;;;;;;23.50;37.80;;;;;;484670;246;1146;-63
2022/11/08 11:20:21;;;;;;;;;;;23.40;37.90;;;;;;484600;246;1165;-65
2022/11/08 11:22:22;;;;;;;;;;;23.50;37.80;;;;;;484724;246;1217;-63
2022/11/08 11:24:24;;;;;;;;;;;23.40;37.80;;;;;;484458;246;1297;-64
2022/11/08 11:26:26;;;;;;;;;;;23.40;37.70;;;;;;484765;246;2203;-63
2022/11/08 11:28:26;;;;;;;;;;;23.50;37.80;;;;;;484440;246;1334;-63
2022/11/08 11:30:28;;;;;;;;;;;23.50;37.80;;;;;;484402;246;1244;-64
2022/11/08 11:32:29;;;;;;;;;;;23.50;37.70;;;;;;484690;246;1297;-63
2022/11/08 11:34:30;;;;;;;;;;;23.50;37.50;;;;;;484473;246;1128;-63
2022/11/08 11:36:31;;;;;;;;;;;23.50;37.60;;;;;;484647;246;1128;-64
2022/11/08 11:38:33;;;;;;;;;;;23.50;37.50;;;;;;484398;246;1440;-64
2022/11/08 11:40:35;;;;;;;;;;;23.50;37.50;;;;;;484686;246;1205;-63
2022/11/08 11:42:36;;;;;;;;;;;23.40;37.50;;;;;;484712;246;1147;-63
2022/11/08 11:44:37;;;;;;;;;;;23.40;37.50;;;;;;484590;246;1216;-64
2022/11/08 11:46:38;;;;;;;;;;;23.40;37.50;;;;;;484676;246;2156;-63
2022/11/08 11:48:40;;;;;;;;;;;23.40;37.50;;;;;;484572;246;1152;-64
2022/11/08 11:50:41;;;;;;;;;;;23.40;37.40;;;;;;484575;246;1127;-64
2022/11/08 11:52:42;;;;;;;;;;;23.40;37.20;;;;;;484528;246;1210;-63
2022/11/08 11:54:45;;;;;;;;;;;23.50;37.20;;;;;;484588;246;1191;-64
2022/11/08 11:56:46;;;;;;;;;;;23.50;37.10;;;;;;484631;246;1107;-63
2022/11/08 11:58:47;;;;;;;;;;;23.50;37.10;;;;;;484679;246;1069;-64
2022/11/08 12:00:48;;;;;;;;;;;23.50;37.00;;;;;;484673;246;1179;-63
2022/11/08 12:02:50;;;;;;;;;;;23.50;37.00;;;;;;484737;246;1196;-64
2022/11/08 12:04:51;;;;;;;;;;;23.50;37.10;;;;;;484698;246;1313;-64
2022/11/08 12:06:52;;;;;;;;;;;23.40;37.20;;;;;;484646;246;2195;-64
2022/11/08 12:08:54;;;;;;;;;;;23.40;37.10;;;;;;484792;246;1206;-64
2022/11/08 12:10:55;;;;;;;;;;;23.40;37.00;;;;;;484673;246;1251;-64
2022/11/08 12:12:56;;;;;;;;;;;23.50;36.90;;;;;;484690;246;1141;-63
2022/11/08 12:14:58;;;;;;;;;;;23.40;36.90;;;;;;484679;246;1156;-64
2022/11/08 12:16:59;;;;;;;;;;;23.40;37.00;;;;;;484568;246;1203;-64
2022/11/08 12:19:00;;;;;;;;;;;23.40;36.90;;;;;;484722;246;1172;-64
2022/11/08 12:21:02;;;;;;;;;;;23.50;36.80;;;;;;484583;246;1153;-63